GMMI

Mogador Airport

Essaouira, Morocco
METAR GMMI 201500Z 04015KT 7000 SCT020 19/11 Q1011 NOSIG
Observed Flight Rules
Feb-20 @ 15:00 UTC (2 hours ago) Marginal Visual Flight Rules
Wind Visibility Clouds
40° at 15 knots 7,001 meters
  • Scattered at 2,000' AGL
Temperatures Readings
Current 19°C / 66°F
Dewpoint 11°C / 52°F
Humidity 60%
Altimeter 29.85" Hg
Pressure 1011 hPa
Elevation 8
METAR GMMI 201500Z 04015KT 7000 SCT020 19/11 Q1011 NOSIG
Observed Flight Rules
Feb-20 @ 15:00 UTC
(2 hours ago)
MVFR
Wind Visibility
40° at 15 knots 7,001 meters
Clouds
  • Scattered at 2,000' AGL
Temperature Dewpoint
19°C / 66°F 11°C / 52°F
Humidity Altimeter Pressure
60% 29.85" Hg 1011 hPa